Aérodrome :
LOGIN :

S'inscrire | Disclaimer

   EN    FR    IT 

 










Légende :    VFR   VFR Marginal   IFR   IFR Intensif   IFR Très Intensif
Visi : 
Plafond : 
>= 8 km
>= 3000ft
5 à 8 km
1000 à 3000 ft
1500m à 5 km
500 à 1000 ft
800 à 1500m
200 à 500 ft
< 800m
< 200 ft
Symboles :   Orages  Brouillard  Fortes neiges  Fortes précipitations  Vent > 20 kt
SIGMETs :   Divers  Orages  Givrage  Turbulence  Onde Orograph.  Cendres Volcan.






- Altitude de l'aérodrome : 312 ft
- Code IATA : SAW


LTFJ - Sabiha Gokcen

DERNIER METAR :
  • 121750Z 03011KT CAVOK 25/18 Q1013 NOSIG RMK RWY24 03008KT

METARs EXPIRÉS :
  • 121720Z 04010KT CAVOK 26/17 Q1013 NOSIG RMK RWY24 04009KT
  • 121650Z 05011KT CAVOK 27/16 Q1013 NOSIG RMK RWY24 05010KT
  • 121620Z 05014KT CAVOK 28/15 Q1012 NOSIG RMK RWY24 04012KT
  • 121550Z 05014KT CAVOK 29/15 Q1012 NOSIG RMK RWY24 05012KT
  • 121520Z 05016KT CAVOK 29/14 Q1012 NOSIG RMK RWY24 04015KT

TAF TAF LTFJ
Valide du 12 à 18h jusqu'au 13 à 18h UTC


121640Z 1218/1318 04007KT CAVOK
BECMG 1222/1224 SCT012
PROB30
TEMPO 1300/1304 3500 BCFG BKN006
BECMG 1305/1307 CAVOK
BECMG 1307/1311 04017KT SCT030
BECMG 1313/1316 04007KT CAVOK



MET'MAP, la Météo Aéronautique d'un coup d'oeil ! - Copyright ORBIFLY Décembre 2007 - Disclaimer

ORBIFLY MET'MAP TEAM :

Programmation & Développement : Alexandra Zaïnal
Sur une idée originale de : Baudouin d'Aumeries
Assistance à la programmation : Marc-Olivier Méhu
Soutien technique & logistique : Manuel Goepfert

Contact : metmap@orbifly.com




SOURCES & CREDITS :

   NOAA